Terminal Aerodrome Forecast
Issued by NWS La Crosse, WI

Home | Current Version | Previous Version | Text Only | Print | Product List | Glossary On
Versions: 1 2 3 4 5 6 7 8 9 10 11 12 13 14 15
000
FTUS43 KARX 301126
TAFLSE
TAF
KLSE 301126Z 3012/3112 15003KT P6SM OVC120
     FM301800 24003KT P6SM OVC060
     FM302100 31008KT P6SM VCSH OVC030
     FM310100 33013G24KT P6SM VCSH OVC030
     FM310600 33014G26KT P6SM SCT030=

USA.gov is the U.S. government's official web portal to all federal, state and local government web resources and services.